Terminal Aerodrome Forecast
Issued by NWS Sioux Falls, SD

Home | Current Version | Previous Version | Graphics & Text | Print | Product List | Glossary On
Versions: 1 2 3 4 5 6 7 8 9 10 11 12 13 14
000
FTUS43 KFSD 171125
TAFSUX
TAF
KSUX 171125Z 1712/1812 30010G17KT P6SM SCT018
      TEMPO 1712/1713 BKN018
     FM171500 31015G23KT P6SM FEW250
     FM172300 31009KT P6SM SKC
     FM180100 VRB03KT P6SM SKC
     FM180800 17004KT P6SM VCSH BKN110=

USA.gov is the U.S. government's official web portal to all federal, state and local government web resources and services.